CO13 weather

CLOSED Heckendorf Ranches Airport
Brighton, Colorado, United States

Public forecast

Using degrees Fahrenheit for public forecast. Weather courtesy of forecast.io.

METAR (pilot weather report)

Closest report is Denver International Airport, 7.0 nm (13.0 km) SSE. Retrieved 2019/04/20 03:53 UTC (13 minutes ago):

KDEN 200353Z 17011KT 10SM CLR 10/01 A3003 RMK AO2 SLP126 T01000011

TAF (pilot weather forecast)

Forecast is more than 12 hours old.

Closest forecast is Denver International Airport, 7.0 nm (13.0 km) SSE. Retrieved 2019/04/19 00:30 UTC (1 day ago):

TAF KDEN 192326Z 2000/2106 12008KT P6SM FEW100 FM200300 16008KT P6SM SKC FM200600 20010KT P6SM SKC FM202000 17010KT P6SM SCT120 BKN200 FM210000 26011KT P6SM SCT100 BKN140